createdAt,value
2023-04-15T00:00:41.243Z,7.47
2023-04-15T00:03:08.664Z,7.35
2023-04-15T00:05:35.558Z,7.28
2023-04-15T00:08:02.238Z,7.23
2023-04-15T00:10:29.160Z,7.17
2023-04-15T00:12:55.944Z,7.09
2023-04-15T00:15:22.628Z,7.13
2023-04-15T00:17:52.165Z,7.13
2023-04-15T00:20:18.973Z,7.16
2023-04-15T00:22:46.644Z,7.19
2023-04-15T00:25:13.445Z,7.21
2023-04-15T00:27:40.774Z,7.22
2023-04-15T00:30:08.008Z,7.16
2023-04-15T00:32:35.076Z,7.13
2023-04-15T00:35:02.469Z,7.09
2023-04-15T00:37:29.368Z,7.00
2023-04-15T00:39:56.714Z,6.95
2023-04-15T00:42:23.994Z,7.04
2023-04-15T00:44:50.715Z,7.08
2023-04-15T00:47:18.617Z,7.02
2023-04-15T00:49:45.898Z,6.98
2023-04-15T00:52:13.415Z,6.93
2023-04-15T00:54:40.232Z,6.92
2023-04-15T00:57:07.340Z,6.90
2023-04-15T00:59:34.305Z,6.89
2023-04-15T01:02:01.718Z,6.87
2023-04-15T01:04:29.244Z,6.82
2023-04-15T01:06:56.247Z,6.87
2023-04-15T01:09:23.069Z,6.82
2023-04-15T01:11:51.231Z,6.80
2023-04-15T01:14:17.998Z,6.75
2023-04-15T01:16:45.541Z,6.71
2023-04-15T01:19:13.758Z,6.70
2023-04-15T01:21:41.167Z,6.70
2023-04-15T01:24:13.341Z,6.56
2023-04-15T01:26:41.029Z,6.48
2023-04-15T01:29:08.658Z,6.40
2023-04-15T01:31:35.730Z,6.41
2023-04-15T01:34:02.508Z,6.38
2023-04-15T01:36:30.035Z,6.36
2023-04-15T01:38:57.444Z,6.42
2023-04-15T01:41:28.228Z,6.54
2023-04-15T01:43:55.312Z,6.54
2023-04-15T01:46:22.213Z,6.51
2023-04-15T01:48:48.967Z,6.50
2023-04-15T01:51:15.697Z,6.49
2023-04-15T01:53:42.740Z,6.57
2023-04-15T01:56:09.513Z,6.59
2023-04-15T01:58:36.292Z,6.50
2023-04-15T02:01:04.125Z,6.53
2023-04-15T02:03:32.030Z,6.48
2023-04-15T02:05:58.831Z,6.40
2023-04-15T02:08:25.658Z,6.42
2023-04-15T02:10:52.944Z,6.42
2023-04-15T02:13:20.121Z,6.37
2023-04-15T02:15:50.879Z,6.38
2023-04-15T02:18:19.509Z,6.35
2023-04-15T02:20:47.216Z,6.26
2023-04-15T02:23:14.118Z,6.28
2023-04-15T02:25:53.486Z,6.27
2023-04-15T02:28:21.373Z,6.20
2023-04-15T02:30:53.581Z,6.23
2023-04-15T02:33:21.542Z,6.25
2023-04-15T02:35:48.310Z,6.26
2023-04-15T02:38:16.999Z,6.28
2023-04-15T02:40:43.924Z,6.26
2023-04-15T02:43:10.838Z,6.11
2023-04-15T02:45:37.608Z,6.03
2023-04-15T02:48:06.713Z,6.02
2023-04-15T02:50:33.703Z,6.00
2023-04-15T02:53:01.883Z,6.05
2023-04-15T02:55:29.568Z,6.08
2023-04-15T02:57:57.397Z,6.12
2023-04-15T03:00:25.542Z,6.15
2023-04-15T03:02:56.868Z,6.17
2023-04-15T03:05:26.594Z,6.20
2023-04-15T03:07:53.733Z,6.22
2023-04-15T03:10:21.992Z,6.24
2023-04-15T03:12:49.041Z,6.29
2023-04-15T03:15:18.608Z,6.31
2023-04-15T03:17:49.852Z,6.38
2023-04-15T03:20:17.165Z,6.31
2023-04-15T03:22:44.108Z,6.28
2023-04-15T03:25:11.145Z,6.28
2023-04-15T03:27:38.798Z,6.28
2023-04-15T03:30:06.888Z,6.32
2023-04-15T03:32:36.625Z,6.35
2023-04-15T03:35:03.378Z,6.38
2023-04-15T03:37:30.071Z,6.35
2023-04-15T03:39:56.831Z,6.28
2023-04-15T03:42:23.584Z,6.19
2023-04-15T03:44:50.253Z,6.13
2023-04-15T03:47:16.922Z,6.18
2023-04-15T03:49:43.638Z,6.21
2023-04-15T03:52:10.329Z,6.25
2023-04-15T03:54:37.024Z,6.26
2023-04-15T03:57:03.757Z,6.25
2023-04-15T03:59:30.683Z,6.24
2023-04-15T04:01:57.596Z,6.24
2023-04-15T04:04:24.523Z,6.24
2023-04-15T04:06:51.275Z,6.24
2023-04-15T04:09:17.999Z,6.22
2023-04-15T04:11:45.792Z,6.20
2023-04-15T04:14:12.542Z,6.19
2023-04-15T04:16:39.390Z,6.14
2023-04-15T04:19:06.499Z,6.10
2023-04-15T04:21:34.373Z,6.06
2023-04-15T04:24:01.226Z,6.01
2023-04-15T04:26:28.004Z,5.99
2023-04-15T04:28:54.722Z,5.96
2023-04-15T04:31:21.453Z,5.94
2023-04-15T04:33:48.154Z,5.95
2023-04-15T04:36:14.868Z,5.88
2023-04-15T04:38:41.723Z,5.78
2023-04-15T04:41:08.418Z,5.70
2023-04-15T04:43:35.140Z,5.69
2023-04-15T04:46:02.017Z,5.66
2023-04-15T04:48:28.716Z,5.67
2023-04-15T04:50:55.887Z,5.63
2023-04-15T04:53:22.594Z,5.59
2023-04-15T04:55:49.261Z,5.55
2023-04-15T04:58:15.984Z,5.59
2023-04-15T05:00:43.543Z,5.58
2023-04-15T05:03:10.561Z,5.57
2023-04-15T05:05:39.635Z,5.49
2023-04-15T05:08:06.621Z,5.48
2023-04-15T05:10:33.316Z,5.52
2023-04-15T05:13:00.041Z,5.55
2023-04-15T05:15:26.777Z,5.59
2023-04-15T05:17:53.545Z,5.55
2023-04-15T05:20:20.313Z,5.56
2023-04-15T05:22:47.063Z,5.60
2023-04-15T05:25:14.121Z,5.63
2023-04-15T05:27:41.087Z,5.62
2023-04-15T05:30:09.056Z,5.63
2023-04-15T05:32:35.880Z,5.59
2023-04-15T05:35:02.600Z,5.60
2023-04-15T05:37:29.428Z,5.61
2023-04-15T05:39:56.975Z,5.64
2023-04-15T05:42:23.679Z,5.70
2023-04-15T05:44:50.553Z,5.72
2023-04-15T05:47:17.440Z,5.72
2023-04-15T05:49:44.256Z,5.76
2023-04-15T05:52:11.132Z,5.82
2023-04-15T05:54:38.505Z,5.89
2023-04-15T05:57:05.650Z,6.00
2023-04-15T05:59:33.061Z,6.09
2023-04-15T06:01:59.783Z,6.19
2023-04-15T06:04:26.699Z,6.30
2023-04-15T06:06:53.672Z,6.40
2023-04-15T06:09:20.439Z,6.50
2023-04-15T06:11:47.558Z,6.59
2023-04-15T06:14:14.263Z,6.71
2023-04-15T06:16:41.169Z,6.77
2023-04-15T06:19:08.062Z,6.88
2023-04-15T06:21:34.836Z,6.98
2023-04-15T06:24:01.740Z,7.02
2023-04-15T06:26:28.911Z,7.09
2023-04-15T06:28:55.953Z,7.17
2023-04-15T06:31:23.073Z,7.25
2023-04-15T06:33:49.868Z,7.30
2023-04-15T06:36:16.594Z,7.26
2023-04-15T06:38:43.280Z,7.26
2023-04-15T06:41:09.973Z,7.30
2023-04-15T06:43:37.244Z,7.25
2023-04-15T06:46:04.608Z,7.23
2023-04-15T06:48:31.611Z,7.28
2023-04-15T06:50:59.029Z,7.32
2023-04-15T06:53:28.150Z,7.34
2023-04-15T06:55:54.990Z,7.41
2023-04-15T06:58:22.119Z,7.49
2023-04-15T07:00:49.369Z,7.52
2023-04-15T07:03:16.344Z,7.56
2023-04-15T07:05:43.606Z,7.60
2023-04-15T07:08:10.338Z,7.60
2023-04-15T07:10:37.414Z,7.58
2023-04-15T07:13:04.543Z,7.66
2023-04-15T07:15:31.481Z,7.76
2023-04-15T07:17:58.336Z,7.85
2023-04-15T07:20:25.195Z,7.97
2023-04-15T07:22:51.953Z,8.07
2023-04-15T07:25:19.190Z,8.29
2023-04-15T07:27:46.059Z,8.45
2023-04-15T07:30:21.922Z,8.72
2023-04-15T07:32:49.171Z,8.92
2023-04-15T07:35:15.947Z,9.15
2023-04-15T07:37:43.632Z,9.33
2023-04-15T07:40:10.889Z,9.36
2023-04-15T07:42:39.382Z,9.43
2023-04-15T07:45:08.004Z,9.53
2023-04-15T07:47:34.805Z,9.62
2023-04-15T07:50:02.443Z,9.60
2023-04-15T07:52:29.245Z,9.70
2023-04-15T07:54:55.993Z,9.73
2023-04-15T07:57:22.803Z,9.85
2023-04-15T07:59:50.266Z,10.02
2023-04-15T08:02:17.186Z,10.20
2023-04-15T08:04:44.309Z,10.36
2023-04-15T08:07:11.264Z,10.51
2023-04-15T08:09:38.024Z,10.61
2023-04-15T08:12:05.011Z,10.84
2023-04-15T08:14:32.036Z,10.90
2023-04-15T08:16:58.775Z,11.16
2023-04-15T08:19:26.009Z,11.24
2023-04-15T08:21:52.767Z,11.35
2023-04-15T08:24:20.071Z,11.35
2023-04-15T08:26:47.373Z,11.33
2023-04-15T08:29:14.193Z,11.39
2023-04-15T08:31:41.238Z,11.49
2023-04-15T08:34:08.043Z,11.54
2023-04-15T08:36:35.048Z,11.71
2023-04-15T08:39:02.387Z,11.91
2023-04-15T08:41:36.003Z,11.82
2023-04-15T08:44:05.177Z,11.68
2023-04-15T08:46:35.024Z,11.74
2023-04-15T08:49:05.332Z,11.86
2023-04-15T08:51:32.418Z,12.02
2023-04-15T08:53:59.977Z,11.94
2023-04-15T08:56:29.634Z,12.18
2023-04-15T08:58:56.942Z,12.17
2023-04-15T09:01:23.760Z,12.32
2023-04-15T09:03:51.017Z,11.97
2023-04-15T09:06:18.313Z,12.02
2023-04-15T09:08:45.173Z,12.21
2023-04-15T09:11:12.450Z,12.16
2023-04-15T09:13:39.558Z,12.37
2023-04-15T09:16:06.959Z,12.49
2023-04-15T09:18:35.763Z,12.67
2023-04-15T09:21:11.523Z,12.85
2023-04-15T09:23:52.065Z,13.00
2023-04-15T09:26:18.986Z,12.99
2023-04-15T09:28:45.822Z,13.10
2023-04-15T09:31:12.974Z,13.10
2023-04-15T09:33:56.567Z,12.95
2023-04-15T09:36:25.256Z,12.99
2023-04-15T09:38:59.554Z,13.17
2023-04-15T09:41:28.790Z,13.47
2023-04-15T09:43:55.640Z,13.46
2023-04-15T09:46:41.369Z,13.65
2023-04-15T09:49:09.339Z,13.61
2023-04-15T09:51:36.696Z,13.69
2023-04-15T09:54:03.741Z,13.39
2023-04-15T09:56:38.986Z,13.37
2023-04-15T09:59:06.185Z,13.48
2023-04-15T10:01:36.285Z,13.47
2023-04-15T10:04:07.093Z,13.44
2023-04-15T10:06:34.097Z,13.44
2023-04-15T10:09:01.376Z,13.68
2023-04-15T10:11:32.058Z,14.08
2023-04-15T10:13:58.904Z,14.65
2023-04-15T10:16:28.651Z,14.93
2023-04-15T10:18:56.779Z,14.84
2023-04-15T10:21:23.863Z,14.98
2023-04-15T10:23:51.555Z,14.77
2023-04-15T10:26:18.383Z,14.93
2023-04-15T10:28:47.372Z,14.88
2023-04-15T10:31:15.267Z,15.06
2023-04-15T10:33:43.165Z,14.95
2023-04-15T10:36:10.596Z,14.82
2023-04-15T10:38:42.662Z,14.93
2023-04-15T10:41:17.797Z,14.85
2023-04-15T10:43:53.018Z,15.06
2023-04-15T10:46:22.253Z,14.90
2023-04-15T10:48:53.181Z,15.00
2023-04-15T10:51:30.822Z,15.22
2023-04-15T10:54:01.623Z,15.24
2023-04-15T10:56:31.962Z,15.22
2023-04-15T10:59:02.049Z,15.55
2023-04-15T11:01:53.354Z,15.77
2023-04-15T11:04:58.815Z,15.68
2023-04-15T11:07:44.458Z,15.84
2023-04-15T11:10:13.856Z,16.02
2023-04-15T11:12:42.172Z,15.93
2023-04-15T11:15:42.452Z,16.26
2023-04-15T11:18:10.263Z,16.58
2023-04-15T11:20:38.028Z,17.14
2023-04-15T11:23:13.874Z,16.72
2023-04-15T11:25:43.556Z,16.53
2023-04-15T11:28:11.657Z,16.17
2023-04-15T11:30:39.524Z,16.21
2023-04-15T11:33:08.829Z,15.96
2023-04-15T11:35:36.624Z,15.77
2023-04-15T11:38:04.855Z,15.59
2023-04-15T11:40:33.622Z,15.45
2023-04-15T11:43:06.903Z,15.24
2023-04-15T11:45:33.922Z,15.63
2023-04-15T11:48:07.245Z,15.73
2023-04-15T11:50:35.402Z,15.96
2023-04-15T11:53:08.398Z,15.99
2023-04-15T11:55:50.932Z,15.69
2023-04-15T11:58:22.811Z,15.33
2023-04-15T12:01:00.354Z,15.03
2023-04-15T12:03:31.261Z,14.68
2023-04-15T12:06:05.504Z,14.31
2023-04-15T12:08:51.009Z,14.20
2023-04-15T12:11:17.887Z,14.27
2023-04-15T12:13:47.072Z,14.32
2023-04-15T12:16:13.951Z,14.33
2023-04-15T12:18:40.674Z,14.33
2023-04-15T12:21:11.127Z,14.41
2023-04-15T12:23:39.297Z,14.23
2023-04-15T12:26:07.672Z,13.58
2023-04-15T12:28:36.849Z,13.10
2023-04-15T12:31:10.783Z,12.48
2023-04-15T12:33:38.031Z,12.27
2023-04-15T12:36:08.474Z,11.87
2023-04-15T12:38:35.244Z,11.77
2023-04-15T12:41:02.003Z,11.58
2023-04-15T12:43:29.041Z,11.15
2023-04-15T12:45:55.906Z,11.06
2023-04-15T12:48:22.641Z,10.89
2023-04-15T12:50:49.425Z,11.09
2023-04-15T12:53:16.197Z,11.39
2023-04-15T12:55:42.935Z,11.52
2023-04-15T12:58:11.556Z,11.60
2023-04-15T13:00:38.956Z,11.76
2023-04-15T13:03:07.400Z,11.75
2023-04-15T13:05:34.298Z,11.77
2023-04-15T13:08:01.082Z,11.73
2023-04-15T13:10:31.811Z,11.90
2023-04-15T13:12:58.823Z,12.00
2023-04-15T13:15:26.104Z,11.99
2023-04-15T13:17:52.931Z,12.24
2023-04-15T13:20:20.122Z,12.37
2023-04-15T13:22:47.038Z,12.54
2023-04-15T13:25:14.099Z,12.66
2023-04-15T13:27:40.785Z,12.84
2023-04-15T13:30:08.648Z,13.04
2023-04-15T13:32:35.844Z,13.04
2023-04-15T13:35:02.640Z,13.10
2023-04-15T13:37:30.366Z,13.02
2023-04-15T13:39:57.396Z,12.87
2023-04-15T13:42:24.836Z,12.93
2023-04-15T13:44:51.847Z,12.99
2023-04-15T13:47:21.616Z,12.98
2023-04-15T13:49:48.392Z,12.93
2023-04-15T13:52:15.061Z,12.92
2023-04-15T13:54:41.821Z,13.09
2023-04-15T13:57:08.581Z,12.88
2023-04-15T13:59:35.656Z,12.77
2023-04-15T14:02:02.960Z,12.77
2023-04-15T14:04:31.631Z,12.68
2023-04-15T14:06:58.812Z,12.73
2023-04-15T14:09:26.478Z,12.81
2023-04-15T14:11:54.625Z,12.80
2023-04-15T14:14:21.406Z,12.75
2023-04-15T14:16:48.468Z,12.72
2023-04-15T14:19:15.402Z,12.58
2023-04-15T14:21:42.246Z,12.62
2023-04-15T14:24:08.978Z,12.66
2023-04-15T14:26:35.762Z,12.59
2023-04-15T14:29:02.731Z,12.62
2023-04-15T14:31:29.594Z,12.53
2023-04-15T14:33:56.279Z,12.52
2023-04-15T14:36:23.163Z,12.49
2023-04-15T14:38:50.155Z,12.50
2023-04-15T14:41:17.390Z,12.51
2023-04-15T14:43:44.115Z,12.36
2023-04-15T14:46:11.468Z,12.54
2023-04-15T14:48:38.394Z,12.58
2023-04-15T14:51:05.253Z,12.44
2023-04-15T14:53:32.126Z,12.42
2023-04-15T14:55:58.834Z,12.41
2023-04-15T14:58:25.593Z,12.40
2023-04-15T15:00:52.344Z,12.07
2023-04-15T15:03:19.235Z,11.96
2023-04-15T15:05:46.963Z,12.11
2023-04-15T15:08:14.006Z,11.84
2023-04-15T15:10:49.562Z,11.98
2023-04-15T15:13:17.174Z,12.05
2023-04-15T15:15:44.231Z,11.89
2023-04-15T15:18:11.527Z,11.89
2023-04-15T15:20:38.400Z,11.81
2023-04-15T15:23:05.129Z,11.96
2023-04-15T15:25:32.173Z,11.72
2023-04-15T15:27:58.910Z,11.65
2023-04-15T15:30:25.661Z,11.61
2023-04-15T15:32:52.409Z,11.55
2023-04-15T15:35:19.169Z,11.43
2023-04-15T15:37:46.214Z,11.48
2023-04-15T15:40:13.128Z,11.19
2023-04-15T15:42:39.826Z,11.25
2023-04-15T15:45:07.246Z,11.13
2023-04-15T15:47:34.055Z,10.89
2023-04-15T15:50:03.041Z,10.87
2023-04-15T15:52:30.975Z,11.02
2023-04-15T15:54:57.681Z,10.93
2023-04-15T15:57:24.373Z,10.63
2023-04-15T16:00:04.882Z,10.46
2023-04-15T16:03:04.359Z,10.32
2023-04-15T16:05:24.161Z,10.16
2023-04-15T16:07:51.164Z,10.20
2023-04-15T16:10:18.220Z,10.19
2023-04-15T16:12:44.946Z,10.11
2023-04-15T16:15:12.761Z,10.13
2023-04-15T16:17:39.722Z,10.24
2023-04-15T16:20:07.229Z,10.20
2023-04-15T16:22:35.050Z,10.23
2023-04-15T16:25:02.410Z,10.23
2023-04-15T16:27:29.430Z,10.09
2023-04-15T16:29:56.770Z,10.15
2023-04-15T16:32:23.589Z,10.17
2023-04-15T16:34:50.497Z,10.20
2023-04-15T16:37:17.171Z,10.32
2023-04-15T16:39:43.872Z,10.33
2023-04-15T16:42:10.736Z,10.31
2023-04-15T16:44:37.582Z,10.28
2023-04-15T16:47:04.264Z,10.18
2023-04-15T16:49:31.004Z,10.15
2023-04-15T16:51:57.779Z,10.10
2023-04-15T16:54:24.470Z,10.14
2023-04-15T16:56:51.575Z,10.13
2023-04-15T16:59:18.323Z,10.02
2023-04-15T17:01:45.664Z,10.00
2023-04-15T17:04:12.681Z,10.00
2023-04-15T17:06:39.944Z,9.82
2023-04-15T17:09:06.901Z,9.94
2023-04-15T17:11:35.298Z,9.87
2023-04-15T17:14:03.016Z,9.87
2023-04-15T17:16:29.705Z,9.81
2023-04-15T17:18:56.609Z,9.82
2023-04-15T17:21:23.298Z,9.82
2023-04-15T17:23:52.183Z,9.70
2023-04-15T17:26:19.264Z,9.75
2023-04-15T17:28:46.211Z,9.78
2023-04-15T17:31:13.011Z,9.75
2023-04-15T17:34:01.269Z,9.58
2023-04-15T17:36:27.193Z,9.70
2023-04-15T17:38:56.348Z,9.70
2023-04-15T17:41:23.358Z,9.68
2023-04-15T17:43:50.520Z,9.56
2023-04-15T17:46:17.334Z,9.59
2023-04-15T17:48:44.080Z,9.65
2023-04-15T17:51:10.937Z,9.72
2023-04-15T17:53:37.610Z,9.56
2023-04-15T17:56:04.477Z,9.58
2023-04-15T17:58:31.519Z,9.55
2023-04-15T18:00:58.380Z,9.61
2023-04-15T18:03:25.240Z,9.36
2023-04-15T18:05:52.111Z,9.47
2023-04-15T18:08:18.873Z,9.43
2023-04-15T18:10:45.621Z,9.52
2023-04-15T18:13:12.309Z,9.53
2023-04-15T18:15:39.014Z,9.49
2023-04-15T18:18:05.769Z,9.52
2023-04-15T18:20:33.651Z,9.51
2023-04-15T18:23:00.416Z,9.51
2023-04-15T18:25:27.151Z,9.44
2023-04-15T18:27:55.016Z,9.47
2023-04-15T18:30:21.779Z,9.47
2023-04-15T18:32:48.633Z,9.53
2023-04-15T18:35:17.270Z,9.49
2023-04-15T18:37:44.114Z,9.46
2023-04-15T18:40:11.267Z,9.47
2023-04-15T18:42:38.004Z,9.44
2023-04-15T18:45:05.667Z,9.47
2023-04-15T18:47:32.639Z,9.44
2023-04-15T18:49:59.803Z,9.47
2023-04-15T18:52:26.757Z,9.49
2023-04-15T18:54:53.417Z,9.40
2023-04-15T18:57:23.613Z,9.38
2023-04-15T18:59:58.095Z,9.30
2023-04-15T19:02:25.018Z,9.40
2023-04-15T19:04:51.906Z,9.45
2023-04-15T19:07:18.867Z,9.51
2023-04-15T19:09:45.668Z,9.40
2023-04-15T19:12:12.380Z,9.33
2023-04-15T19:14:39.202Z,9.33
2023-04-15T19:17:05.968Z,9.20
2023-04-15T19:19:32.641Z,9.36
2023-04-15T19:22:01.859Z,9.20
2023-04-15T19:24:30.542Z,9.09
2023-04-15T19:26:59.423Z,9.16
2023-04-15T19:29:26.188Z,9.27
2023-04-15T19:31:53.071Z,9.22
2023-04-15T19:34:19.783Z,9.17
2023-04-15T19:36:46.601Z,8.98
2023-04-15T19:39:13.737Z,9.17
2023-04-15T19:41:40.485Z,9.29
2023-04-15T19:44:07.261Z,9.37
2023-04-15T19:46:34.222Z,9.35
2023-04-15T19:49:01.790Z,9.32
2023-04-15T19:51:28.922Z,9.22
2023-04-15T19:53:57.015Z,9.24
2023-04-15T19:56:24.275Z,9.27
2023-04-15T19:58:53.296Z,9.24
2023-04-15T20:01:20.508Z,9.36
2023-04-15T20:03:47.605Z,9.39
2023-04-15T20:06:15.668Z,9.45
2023-04-15T20:08:42.456Z,9.47
2023-04-15T20:11:09.932Z,9.43
2023-04-15T20:13:36.784Z,9.46
2023-04-15T20:16:03.679Z,9.21
2023-04-15T20:18:30.965Z,8.99
2023-04-15T20:20:57.735Z,9.18
2023-04-15T20:23:24.528Z,9.23
2023-04-15T20:25:52.052Z,9.05
2023-04-15T20:28:19.472Z,9.06
2023-04-15T20:30:47.284Z,8.90
2023-04-15T20:33:14.441Z,9.06
2023-04-15T20:35:41.256Z,9.07
2023-04-15T20:38:07.948Z,9.11
2023-04-15T20:40:34.739Z,9.09
2023-04-15T20:43:01.672Z,9.06
2023-04-15T20:45:28.382Z,9.04
2023-04-15T20:47:56.303Z,9.13
2023-04-15T20:50:23.090Z,9.22
2023-04-15T20:52:49.806Z,9.21
2023-04-15T20:55:17.339Z,9.13
2023-04-15T20:57:44.045Z,9.07
2023-04-15T21:00:11.303Z,9.12
2023-04-15T21:02:38.907Z,9.14
2023-04-15T21:05:06.128Z,9.13
2023-04-15T21:07:32.954Z,9.06
2023-04-15T21:09:59.637Z,9.21
2023-04-15T21:12:26.341Z,9.30
2023-04-15T21:14:53.327Z,9.34
2023-04-15T21:17:20.109Z,9.33
2023-04-15T21:19:46.790Z,9.38
2023-04-15T21:22:13.544Z,9.33
2023-04-15T21:24:40.289Z,9.14
2023-04-15T21:27:07.000Z,9.17
2023-04-15T21:29:33.776Z,9.25
2023-04-15T21:32:00.709Z,9.28
2023-04-15T21:34:27.494Z,9.28
2023-04-15T21:36:54.336Z,9.30
2023-04-15T21:39:21.031Z,9.22
2023-04-15T21:41:47.767Z,9.25
2023-04-15T21:44:15.087Z,9.23
2023-04-15T21:46:42.192Z,9.32
2023-04-15T21:49:12.864Z,9.32
2023-04-15T21:51:39.554Z,9.03
2023-04-15T21:54:06.239Z,8.99
2023-04-15T21:56:33.371Z,9.11
2023-04-15T21:59:00.070Z,9.10
2023-04-15T22:01:27.384Z,9.23
2023-04-15T22:03:54.387Z,9.25
2023-04-15T22:06:21.592Z,9.27
2023-04-15T22:09:09.246Z,9.13
2023-04-15T22:11:36.549Z,9.26
2023-04-15T22:14:03.282Z,9.12
2023-04-15T22:16:30.044Z,9.26
2023-04-15T22:18:56.820Z,9.20
2023-04-15T22:21:24.009Z,9.10
2023-04-15T22:23:51.425Z,9.03
2023-04-15T22:26:18.164Z,9.03
2023-04-15T22:28:45.264Z,9.12
2023-04-15T22:31:12.043Z,9.04
2023-04-15T22:33:39.145Z,9.16
2023-04-15T22:36:06.476Z,9.16
2023-04-15T22:38:33.369Z,8.95
2023-04-15T22:41:00.501Z,8.93
2023-04-15T22:43:27.874Z,9.05
2023-04-15T22:45:55.209Z,9.12
2023-04-15T22:48:22.467Z,9.13
2023-04-15T22:50:49.728Z,9.23
2023-04-15T22:53:17.581Z,9.13
2023-04-15T22:55:48.591Z,9.15
2023-04-15T22:58:16.433Z,9.20
2023-04-15T23:00:43.257Z,9.02
2023-04-15T23:03:10.506Z,9.10
2023-04-15T23:05:37.572Z,9.09
2023-04-15T23:08:04.258Z,9.14
2023-04-15T23:10:31.130Z,9.09
2023-04-15T23:12:57.898Z,9.11
2023-04-15T23:15:25.017Z,9.12
2023-04-15T23:17:51.831Z,9.17
2023-04-15T23:20:18.595Z,9.10
2023-04-15T23:22:45.586Z,9.09
2023-04-15T23:25:12.497Z,8.86
2023-04-15T23:27:39.283Z,8.97
2023-04-15T23:30:07.331Z,9.02
2023-04-15T23:32:34.085Z,9.18
2023-04-15T23:35:00.866Z,9.17
2023-04-15T23:37:27.858Z,9.07
2023-04-15T23:39:55.895Z,8.93
2023-04-15T23:42:23.385Z,8.88
2023-04-15T23:44:50.158Z,8.99
2023-04-15T23:47:16.848Z,8.92
2023-04-15T23:49:43.989Z,9.00
2023-04-15T23:52:10.747Z,8.81
2023-04-15T23:54:37.433Z,8.84
2023-04-15T23:57:04.217Z,8.93
2023-04-15T23:59:30.972Z,9.00
